createdAt,value
2022-12-27T05:02:26.700Z,2.83
2022-12-27T05:04:58.889Z,2.40
2022-12-27T05:07:30.906Z,2.37
2022-12-27T05:10:03.922Z,2.50
2022-12-27T05:12:35.938Z,2.90
2022-12-27T05:15:08.596Z,2.80
2022-12-27T05:17:41.939Z,2.10
2022-12-27T05:20:13.984Z,2.50
2022-12-27T05:22:45.987Z,2.60
2022-12-27T05:25:17.975Z,2.67
2022-12-27T05:27:49.985Z,2.43
2022-12-27T05:30:21.981Z,2.53
2022-12-27T05:32:56.039Z,2.40
2022-12-27T05:35:28.090Z,2.03
2022-12-27T05:38:00.124Z,2.00
2022-12-27T05:40:32.137Z,3.07
2022-12-27T05:43:04.285Z,2.53
2022-12-27T05:45:36.325Z,2.57
2022-12-27T05:48:09.676Z,2.47
2022-12-27T05:50:41.686Z,1.90
2022-12-27T05:53:13.699Z,2.60
2022-12-27T05:55:45.723Z,2.00
2022-12-27T05:58:17.745Z,2.37
2022-12-27T06:00:49.766Z,2.40
2022-12-27T06:03:23.185Z,2.50
2022-12-27T06:06:00.048Z,1.90
2022-12-27T06:08:32.214Z,2.50
2022-12-27T06:11:04.984Z,2.47
2022-12-27T06:13:37.103Z,2.97
2022-12-27T06:16:09.661Z,2.17
2022-12-27T06:18:43.132Z,2.30
2022-12-27T06:21:15.631Z,2.50
2022-12-27T06:23:47.829Z,2.13
2022-12-27T06:26:20.376Z,2.33
2022-12-27T06:28:52.406Z,2.50
2022-12-27T06:31:24.481Z,2.30
2022-12-27T06:33:57.969Z,2.70
2022-12-27T06:36:30.002Z,2.33
2022-12-27T06:39:02.060Z,2.23
2022-12-27T06:41:34.052Z,2.37
2022-12-27T06:44:06.147Z,2.57
2022-12-27T06:46:38.250Z,3.10
2022-12-27T06:49:12.078Z,2.20
2022-12-27T06:51:44.089Z,3.47
2022-12-27T06:54:16.223Z,2.67
2022-12-27T06:56:48.276Z,2.50
2022-12-27T06:59:20.302Z,3.23
2022-12-27T07:01:52.575Z,3.10
2022-12-27T07:04:26.131Z,2.77
2022-12-27T07:06:58.147Z,2.53
2022-12-27T07:09:30.168Z,2.57
2022-12-27T07:12:02.164Z,2.47
2022-12-27T07:14:34.251Z,2.63
2022-12-27T07:17:06.360Z,2.60
2022-12-27T07:19:39.743Z,2.50
2022-12-27T07:22:11.754Z,2.63
2022-12-27T07:24:43.811Z,2.47
2022-12-27T07:27:15.844Z,2.40
2022-12-27T07:29:47.869Z,2.80
2022-12-27T07:32:19.894Z,3.27
2022-12-27T07:34:53.266Z,2.63
2022-12-27T07:37:25.292Z,2.97
2022-12-27T07:39:57.329Z,3.13
2022-12-27T07:42:29.336Z,2.87
2022-12-27T07:45:01.348Z,3.10
2022-12-27T07:47:33.361Z,2.67
2022-12-27T07:50:07.436Z,2.70
2022-12-27T07:52:39.456Z,2.87
2022-12-27T07:55:11.499Z,2.90
2022-12-27T07:57:43.538Z,2.57
2022-12-27T08:00:15.875Z,2.67
2022-12-27T08:02:47.877Z,2.33
2022-12-27T08:05:25.912Z,3.13
2022-12-27T08:07:59.553Z,2.83
2022-12-27T08:10:31.577Z,2.97
2022-12-27T08:13:03.603Z,2.27
2022-12-27T08:15:35.804Z,3.17
2022-12-27T08:18:07.847Z,2.53
2022-12-27T08:20:41.225Z,2.63
2022-12-27T08:23:13.239Z,2.97
2022-12-27T08:25:48.804Z,2.80
2022-12-27T08:28:21.213Z,3.07
2022-12-27T08:30:53.283Z,2.50
2022-12-27T08:33:25.378Z,2.93
2022-12-27T08:35:58.754Z,1.90
2022-12-27T08:38:30.781Z,3.03
2022-12-27T08:41:02.797Z,2.23
2022-12-27T08:43:34.790Z,3.40
2022-12-27T08:46:06.927Z,4.80
2022-12-27T08:48:39.027Z,3.80
2022-12-27T08:51:14.661Z,4.93
2022-12-27T08:53:50.590Z,7.50
2022-12-27T08:56:22.620Z,6.50
2022-12-27T08:58:54.606Z,5.70
2022-12-27T09:01:26.760Z,6.50
2022-12-27T09:03:58.875Z,6.73
2022-12-27T09:06:32.266Z,5.67
2022-12-27T09:09:04.340Z,7.70
2022-12-27T09:11:36.356Z,6.53
2022-12-27T09:14:08.373Z,5.30
2022-12-27T09:16:40.408Z,5.13
2022-12-27T09:19:12.108Z,4.67
2022-12-27T09:21:45.112Z,8.93
2022-12-27T09:24:16.743Z,9.03
2022-12-27T09:26:48.443Z,10.40
2022-12-27T09:29:20.099Z,8.13
2022-12-27T09:31:51.740Z,8.03
2022-12-27T09:34:23.413Z,13.33
2022-12-27T09:36:56.442Z,8.73
2022-12-27T09:39:28.093Z,7.47
2022-12-27T09:44:56.365Z,12.23
2022-12-27T09:47:29.856Z,11.13
2022-12-27T09:50:03.144Z,9.13
2022-12-27T09:52:37.035Z,9.27
2022-12-27T09:55:12.424Z,9.57
2022-12-27T09:57:45.177Z,9.27
2022-12-27T10:00:18.077Z,7.60
2022-12-27T10:02:50.012Z,5.43
2022-12-27T10:05:23.608Z,3.80
2022-12-27T10:08:03.101Z,4.10
2022-12-27T10:10:41.387Z,3.73
2022-12-27T10:13:23.130Z,3.67
2022-12-27T10:16:00.308Z,4.00
2022-12-27T10:18:38.142Z,3.43
2022-12-27T10:21:13.544Z,4.50
2022-12-27T10:23:48.302Z,3.70
2022-12-27T10:26:20.148Z,5.33
2022-12-27T10:28:57.160Z,4.37
2022-12-27T10:31:29.878Z,4.33
2022-12-27T10:34:04.007Z,4.80
2022-12-27T10:36:39.428Z,3.77
2022-12-27T10:39:15.628Z,3.70
2022-12-27T10:41:53.204Z,3.50
2022-12-27T10:44:24.908Z,3.30
2022-12-27T10:46:56.646Z,3.20
2022-12-27T10:49:28.966Z,4.50
2022-12-27T10:52:07.326Z,3.30
2022-12-27T10:54:51.389Z,3.93
2022-12-27T10:57:25.733Z,3.50
2022-12-27T11:00:15.368Z,3.40
2022-12-27T11:02:50.936Z,3.80
2022-12-27T11:05:23.891Z,3.97
2022-12-27T11:07:55.581Z,3.20
2022-12-27T11:10:29.055Z,3.10
2022-12-27T11:13:01.452Z,2.80
2022-12-27T11:15:36.110Z,2.50
2022-12-27T11:18:10.198Z,2.43
2022-12-27T11:20:44.717Z,2.27
2022-12-27T11:23:16.952Z,2.10
2022-12-27T11:25:52.871Z,2.47
2022-12-27T11:28:29.246Z,2.93
2022-12-27T11:31:02.127Z,2.03
2022-12-27T11:33:34.975Z,2.33
2022-12-27T11:36:07.594Z,2.13
2022-12-27T11:38:39.945Z,2.30
2022-12-27T11:41:15.095Z,2.83
2022-12-27T11:43:48.446Z,2.57
2022-12-27T11:46:24.474Z,2.70
2022-12-27T11:48:56.963Z,2.17
2022-12-27T11:52:03.371Z,2.30
2022-12-27T11:55:12.840Z,2.27
2022-12-27T11:58:03.004Z,1.90
2022-12-27T12:00:37.637Z,2.30
2022-12-27T12:03:33.475Z,2.17
2022-12-27T12:06:09.823Z,1.73
2022-12-27T12:09:15.251Z,1.60
2022-12-27T12:11:55.589Z,1.67
2022-12-27T12:14:42.607Z,2.00
2022-12-27T12:17:39.390Z,1.77
2022-12-27T12:20:25.253Z,1.63
2022-12-27T12:23:06.184Z,2.57
2022-12-27T12:26:00.058Z,1.90
2022-12-27T12:28:59.650Z,2.23
2022-12-27T12:32:08.553Z,2.10
2022-12-27T12:34:53.257Z,1.70
2022-12-27T12:37:34.638Z,1.80
2022-12-27T12:40:29.898Z,1.80
2022-12-27T12:43:09.791Z,1.80
2022-12-27T12:45:56.161Z,2.17
2022-12-27T12:48:45.287Z,1.60
2022-12-27T12:51:34.983Z,1.80
2022-12-27T12:54:23.524Z,1.97
2022-12-27T12:57:01.946Z,1.70
2022-12-27T12:59:56.664Z,1.80
2022-12-27T13:02:41.002Z,1.90
2022-12-27T13:05:13.928Z,1.93
2022-12-27T13:07:56.146Z,2.23
2022-12-27T13:10:42.981Z,2.03
2022-12-27T13:13:17.439Z,1.87
2022-12-27T13:15:54.988Z,1.90
2022-12-27T13:18:30.604Z,1.93
2022-12-27T13:21:16.740Z,1.90
2022-12-27T13:23:56.642Z,1.80
2022-12-27T13:26:34.416Z,2.30
2022-12-27T13:29:25.274Z,2.30
2022-12-27T13:31:59.828Z,2.47
2022-12-27T13:34:36.902Z,2.40
2022-12-27T13:37:15.071Z,2.60
2022-12-27T13:39:56.971Z,3.13
2022-12-27T13:42:56.291Z,2.77
2022-12-27T13:45:43.202Z,2.23
2022-12-27T13:48:20.371Z,3.00
2022-12-27T13:50:56.754Z,2.60
2022-12-27T13:54:18.027Z,2.40
2022-12-27T13:56:55.380Z,3.13
2022-12-27T13:59:39.075Z,2.83
2022-12-27T14:02:23.245Z,2.47
2022-12-27T14:05:35.547Z,2.27
2022-12-27T14:08:11.323Z,2.20
2022-12-27T14:10:43.829Z,2.23
2022-12-27T14:13:22.543Z,3.93
2022-12-27T14:16:17.662Z,2.50
2022-12-27T14:18:58.783Z,2.20
2022-12-27T14:21:59.905Z,1.93
2022-12-27T14:25:00.321Z,1.90
2022-12-27T14:28:11.950Z,2.23
2022-12-27T14:31:40.747Z,3.83
2022-12-27T14:34:33.927Z,2.30
2022-12-27T14:37:28.450Z,2.13
2022-12-27T14:40:44.051Z,2.37
2022-12-27T14:43:33.828Z,2.60
2022-12-27T14:46:27.696Z,2.20
2022-12-27T14:49:20.430Z,2.80
2022-12-27T14:52:29.056Z,3.37
2022-12-27T14:55:39.676Z,2.80
2022-12-27T14:58:22.129Z,2.40
2022-12-27T15:01:06.102Z,2.50
2022-12-27T15:03:53.029Z,2.07
2022-12-27T15:06:53.492Z,2.70
2022-12-27T15:09:29.638Z,2.50
2022-12-27T15:12:18.004Z,2.30
2022-12-27T15:15:03.146Z,2.60
2022-12-27T15:17:45.790Z,2.53
2022-12-27T15:20:26.105Z,2.37
2022-12-27T15:23:01.958Z,2.63
2022-12-27T15:25:43.126Z,3.07
2022-12-27T15:28:18.803Z,2.73
2022-12-27T15:30:52.585Z,2.83
2022-12-27T15:33:26.994Z,2.30
2022-12-27T15:36:00.851Z,2.50
2022-12-27T15:38:46.148Z,2.87
2022-12-27T15:41:31.297Z,2.97
2022-12-27T15:44:30.524Z,3.20
2022-12-27T15:47:34.840Z,3.33
2022-12-27T15:50:28.569Z,3.13
2022-12-27T15:53:19.234Z,2.60
2022-12-27T15:56:06.465Z,4.77
2022-12-27T15:58:38.684Z,3.13
2022-12-27T16:01:29.997Z,2.60
2022-12-27T16:04:11.573Z,3.07
2022-12-27T16:06:50.841Z,3.13
2022-12-27T16:09:34.271Z,2.83
2022-12-27T16:12:09.151Z,2.60
2022-12-27T16:14:41.561Z,2.87
2022-12-27T16:17:27.184Z,2.40
2022-12-27T16:20:10.144Z,2.33
2022-12-27T16:22:42.672Z,2.37
2022-12-27T16:25:31.528Z,2.40
2022-12-27T16:28:05.620Z,3.03
2022-12-27T16:30:42.763Z,2.77
2022-12-27T16:33:27.938Z,2.33
2022-12-27T16:36:21.286Z,2.27
2022-12-27T16:39:02.812Z,2.27
2022-12-27T16:41:41.974Z,2.90
2022-12-27T16:44:16.742Z,2.13
2022-12-27T16:46:56.970Z,2.10
2022-12-27T16:49:59.027Z,2.27
2022-12-27T16:52:47.823Z,2.17
2022-12-27T16:55:34.747Z,2.60
2022-12-27T16:58:20.621Z,2.30
2022-12-27T17:00:52.577Z,2.40
2022-12-27T17:03:41.793Z,2.90
2022-12-27T17:06:50.983Z,2.50
2022-12-27T17:09:42.234Z,2.90
2022-12-27T17:12:21.810Z,3.13
2022-12-27T17:14:57.432Z,2.70
2022-12-27T17:17:29.106Z,2.83
2022-12-27T17:20:03.344Z,2.90
2022-12-27T17:22:37.739Z,2.90
2022-12-27T17:25:14.338Z,3.23
2022-12-27T17:27:54.237Z,3.13
2022-12-27T17:30:26.079Z,2.73
2022-12-27T17:33:11.727Z,2.90
2022-12-27T17:35:50.886Z,2.73
2022-12-27T17:38:31.165Z,2.93
2022-12-27T17:41:11.937Z,2.90
2022-12-27T17:43:51.116Z,2.60
2022-12-27T17:46:29.047Z,2.77
2022-12-27T17:49:00.713Z,2.47
2022-12-27T17:51:32.403Z,2.90
2022-12-27T17:54:20.955Z,3.20
2022-12-27T17:56:56.435Z,3.17
2022-12-27T17:59:28.735Z,3.30
2022-12-27T18:02:03.865Z,3.03
2022-12-27T18:04:36.474Z,2.70
2022-12-27T18:07:09.754Z,2.70
2022-12-27T18:09:43.801Z,2.77
2022-12-27T18:12:18.796Z,2.50
2022-12-27T18:14:53.531Z,2.77
2022-12-27T18:17:28.974Z,3.20
2022-12-27T18:20:00.894Z,3.23
2022-12-27T18:22:32.597Z,2.70
2022-12-27T18:25:20.347Z,2.53
2022-12-27T18:27:58.241Z,3.20
2022-12-27T18:30:32.887Z,3.07
2022-12-27T18:33:04.582Z,2.80
2022-12-27T18:35:36.433Z,2.80
2022-12-27T18:38:08.101Z,2.43
2022-12-27T18:40:41.125Z,2.63
2022-12-27T18:43:13.825Z,2.70
2022-12-27T18:45:45.523Z,2.80
2022-12-27T18:48:17.309Z,2.80
2022-12-27T18:50:50.503Z,2.90
2022-12-27T18:53:22.893Z,2.50
2022-12-27T18:55:59.966Z,2.90
2022-12-27T18:58:31.939Z,2.80
2022-12-27T19:01:05.132Z,3.10
2022-12-27T19:03:40.894Z,3.53
2022-12-27T19:06:12.884Z,2.77
2022-12-27T19:08:45.785Z,3.23
2022-12-27T19:11:20.284Z,2.73
2022-12-27T19:13:52.866Z,3.17
2022-12-27T19:16:25.591Z,3.00
2022-12-27T19:18:58.325Z,3.83
2022-12-27T19:21:31.901Z,2.83
2022-12-27T19:24:19.022Z,3.00
2022-12-27T19:26:52.187Z,3.23
2022-12-27T19:29:25.267Z,3.20
2022-12-27T19:31:57.862Z,3.67
2022-12-27T19:34:31.026Z,3.67
2022-12-27T19:37:02.704Z,3.67
2022-12-27T19:39:35.198Z,2.90
2022-12-27T19:42:10.976Z,3.50
2022-12-27T19:44:42.657Z,2.90
2022-12-27T19:47:14.353Z,3.60
2022-12-27T19:49:46.047Z,3.40
2022-12-27T19:52:19.455Z,3.77
2022-12-27T19:54:51.934Z,3.70
2022-12-27T19:57:24.964Z,3.30
2022-12-27T19:59:56.997Z,3.50
2022-12-27T20:02:28.921Z,3.67
2022-12-27T20:05:00.678Z,3.30
2022-12-27T20:07:32.375Z,3.70
2022-12-27T20:10:04.830Z,4.10
2022-12-27T20:12:37.875Z,3.70
2022-12-27T20:15:10.356Z,3.90
2022-12-27T20:17:44.973Z,3.13
2022-12-27T20:20:17.113Z,3.40
2022-12-27T20:22:48.788Z,3.40
2022-12-27T20:25:20.463Z,3.63
2022-12-27T20:27:53.472Z,2.80
2022-12-27T20:30:25.180Z,3.13
2022-12-27T20:32:56.930Z,3.03
2022-12-27T20:35:28.760Z,3.20
2022-12-27T20:38:00.530Z,3.30
2022-12-27T20:40:32.416Z,2.97
2022-12-27T20:43:05.450Z,2.83
2022-12-27T20:45:37.254Z,3.37
2022-12-27T20:48:08.984Z,3.70
2022-12-27T20:50:40.842Z,3.40
2022-12-27T20:53:14.318Z,3.40
2022-12-27T20:55:46.002Z,3.57
2022-12-27T20:58:19.014Z,3.80
2022-12-27T21:00:50.706Z,3.17
2022-12-27T21:03:22.460Z,3.83
2022-12-27T21:05:54.161Z,3.50
2022-12-27T21:08:25.817Z,3.60
2022-12-27T21:10:57.548Z,4.27
2022-12-27T21:13:30.795Z,3.30
2022-12-27T21:16:02.538Z,3.53
2022-12-27T21:18:34.549Z,3.77
2022-12-27T21:21:07.387Z,3.13
2022-12-27T21:23:39.184Z,3.40
2022-12-27T21:26:11.626Z,3.53
2022-12-27T21:28:44.657Z,3.33
2022-12-27T21:31:16.668Z,3.20
2022-12-27T21:33:48.453Z,3.53
2022-12-27T21:36:21.028Z,3.03
2022-12-27T21:38:52.740Z,3.17
2022-12-27T21:41:25.064Z,3.27
2022-12-27T21:43:58.126Z,2.63
2022-12-27T21:46:30.570Z,3.37
2022-12-27T21:49:02.941Z,3.37
2022-12-27T21:51:34.968Z,3.10
2022-12-27T21:54:06.730Z,3.23
2022-12-27T21:56:38.386Z,3.30
2022-12-27T21:59:11.390Z,3.10
2022-12-27T22:01:50.276Z,3.30
2022-12-27T22:04:23.872Z,2.90
2022-12-27T22:06:55.539Z,2.90
2022-12-27T22:09:27.229Z,2.43
2022-12-27T22:11:58.897Z,2.90
2022-12-27T22:14:36.826Z,2.60
2022-12-27T22:17:08.902Z,3.27
2022-12-27T22:19:40.551Z,2.83
2022-12-27T22:22:12.225Z,3.17
2022-12-27T22:24:43.896Z,2.73
2022-12-27T22:27:15.583Z,3.00
2022-12-27T22:29:48.570Z,2.60
2022-12-27T22:32:20.259Z,2.50
2022-12-27T22:34:52.312Z,2.67
2022-12-27T22:37:24.001Z,2.77
2022-12-27T22:39:55.651Z,3.30
2022-12-27T22:42:27.367Z,2.63
2022-12-27T22:45:00.392Z,2.40
2022-12-27T22:47:32.137Z,2.80
2022-12-27T22:50:04.137Z,2.20
2022-12-27T22:52:35.804Z,2.60
2022-12-27T22:55:08.038Z,2.80
2022-12-27T22:57:39.779Z,2.63
